Time;durP1;ratioP1;P1;durP2;ratioP2;P2;SDS_P1;SDS_P2;PMS_P1;PMS_P2;Temp;Humidity;BMP_temperature;BMP_pressure;BME280_temperature;BME280_humidity;BME280_pressure;Samples;Min_cycle;Max_cycle;Signal;HPM_P1;HPM_P2
2021/06/08 00:00:31;;;;;;;0.30;0.20;;;;;;;;;;5082820;28;20426;-62
2021/06/08 00:02:57;;;;;;;0.30;0.20;;;;;;;;;;5090728;28;20441;-62
2021/06/08 00:05:23;;;;;;;0.30;0.20;;;;;;;;;;5078765;28;20424;-62
2021/06/08 00:07:49;;;;;;;0.30;0.20;;;;;;;;;;5079115;28;20485;-62
2021/06/08 00:10:16;;;;;;;0.30;0.20;;;;;;;;;;5074721;28;20420;-62
2021/06/08 00:12:42;;;;;;;0.30;0.20;;;;;;;;;;5080653;28;20803;-62
2021/06/08 00:15:09;;;;;;;0.30;0.20;;;;;;;;;;5071349;28;20380;-62
2021/06/08 00:17:35;;;;;;;0.30;0.20;;;;;;;;;;5089817;28;20413;-63
2021/06/08 00:20:01;;;;;;;0.30;0.20;;;;;;;;;;5091572;28;20495;-63
2021/06/08 00:22:27;;;;;;;0.30;0.20;;;;;;;;;;5090966;28;20436;-63
2021/06/08 00:24:53;;;;;;;0.30;0.20;;;;;;;;;;5091809;28;20431;-63
2021/06/08 00:27:19;;;;;;;0.30;0.20;;;;;;;;;;5082974;28;20424;-63
2021/06/08 00:29:45;;;;;;;0.30;0.20;;;;;;;;;;5089852;28;20408;-63
2021/06/08 00:32:11;;;;;;;0.30;0.30;;;;;;;;;;5073341;28;20480;-63
2021/06/08 00:34:37;;;;;;;0.30;0.20;;;;;;;;;;5074987;28;20415;-63
2021/06/08 00:37:03;;;;;;;0.30;0.20;;;;;;;;;;5091669;28;20420;-63
2021/06/08 00:39:29;;;;;;;0.30;0.20;;;;;;;;;;5071154;28;20402;-63
2021/06/08 00:41:55;;;;;;;0.30;0.20;;;;;;;;;;5083254;28;20757;-63
2021/06/08 00:44:22;;;;;;;0.30;0.20;;;;;;;;;;5086778;28;20808;-63
2021/06/08 00:46:48;;;;;;;0.30;0.20;;;;;;;;;;5091133;28;20377;-63
2021/06/08 00:49:14;;;;;;;0.30;0.20;;;;;;;;;;5071114;28;20468;-63
2021/06/08 00:51:41;;;;;;;0.30;0.20;;;;;;;;;;5071414;28;20400;-63
2021/06/08 00:54:10;;;;;;;0.30;0.20;;;;;;;;;;5086755;28;20495;-63
2021/06/08 00:56:38;;;;;;;0.30;0.20;;;;;;;;;;5071279;28;20413;-63
2021/06/08 00:59:05;;;;;;;0.30;0.23;;;;;;;;;;5088313;28;20915;-63
2021/06/08 01:01:31;;;;;;;0.30;0.20;;;;;;;;;;5089402;28;20909;-62
2021/06/08 01:03:57;;;;;;;0.30;0.20;;;;;;;;;;5078060;28;20469;-63
2021/06/08 01:06:23;;;;;;;0.30;0.20;;;;;;;;;;5080574;28;20996;-63
2021/06/08 01:08:50;;;;;;;0.30;0.20;;;;;;;;;;5089775;28;20459;-63
2021/06/08 01:11:16;;;;;;;0.30;0.20;;;;;;;;;;5079762;28;20387;-63
2021/06/08 01:13:42;;;;;;;0.30;0.20;;;;;;;;;;5091342;28;20553;-63
2021/06/08 01:16:08;;;;;;;0.30;0.20;;;;;;;;;;5090506;28;20474;-63
2021/06/08 01:18:34;;;;;;;0.30;0.20;;;;;;;;;;5090978;28;20408;-64
2021/06/08 01:21:10;;;;;;;0.30;0.20;;;;;;;;;;5082696;28;20793;-64
2021/06/08 01:23:37;;;;;;;0.30;0.20;;;;;;;;;;5068282;28;20616;-64
2021/06/08 01:26:03;;;;;;;0.30;0.20;;;;;;;;;;5080065;28;20429;-63
2021/06/08 01:28:30;;;;;;;0.30;0.20;;;;;;;;;;5072661;28;20453;-63
2021/06/08 01:30:57;;;;;;;0.30;0.20;;;;;;;;;;5068962;28;20431;-63
2021/06/08 01:33:24;;;;;;;0.30;0.20;;;;;;;;;;5094470;28;20470;-63
2021/06/08 01:35:51;;;;;;;0.30;0.30;;;;;;;;;;5080793;28;20820;-63
2021/06/08 01:38:17;;;;;;;0.30;0.20;;;;;;;;;;5079155;28;20783;-63
2021/06/08 01:40:44;;;;;;;0.30;0.20;;;;;;;;;;5086293;28;20950;-63
2021/06/08 01:43:10;;;;;;;0.30;0.20;;;;;;;;;;5092914;28;20537;-63
2021/06/08 01:45:36;;;;;;;0.30;0.20;;;;;;;;;;5093986;28;20946;-63
2021/06/08 01:48:04;;;;;;;0.30;0.20;;;;;;;;;;5074237;28;20859;-63
2021/06/08 01:50:30;;;;;;;0.30;0.20;;;;;;;;;;5074054;28;20421;-63
2021/06/08 01:53:05;;;;;;;0.30;0.20;;;;;;;;;;5093652;28;20471;-63
2021/06/08 01:55:35;;;;;;;0.30;0.20;;;;;;;;;;5093040;28;20865;-63
2021/06/08 01:58:09;;;;;;;0.30;0.20;;;;;;;;;;5090131;28;20417;-63
2021/06/08 02:00:41;;;;;;;0.30;0.20;;;;;;;;;;5073980;28;20420;-63
2021/06/08 02:03:07;;;;;;;0.30;0.20;;;;;;;;;;5074220;28;20532;-63
2021/06/08 02:05:46;;;;;;;0.30;0.20;;;;;;;;;;5074112;28;20409;-63
2021/06/08 02:08:12;;;;;;;0.30;0.20;;;;;;;;;;5086930;28;20430;-63
2021/06/08 02:10:38;;;;;;;0.30;0.20;;;;;;;;;;5074099;28;20392;-63
2021/06/08 02:13:24;;;;;;;0.30;0.20;;;;;;;;;;5080482;28;20957;-63
2021/06/08 02:15:54;;;;;;;0.30;0.20;;;;;;;;;;5077960;28;20400;-63
2021/06/08 02:18:21;;;;;;;0.30;0.20;;;;;;;;;;5074681;28;20554;-63
2021/06/08 02:20:50;;;;;;;0.30;0.20;;;;;;;;;;5073638;28;20431;-63
2021/06/08 02:23:19;;;;;;;0.30;0.20;;;;;;;;;;5078528;28;20423;-63
2021/06/08 02:25:45;;;;;;;0.30;0.20;;;;;;;;;;5088039;28;20417;-63
2021/06/08 02:28:13;;;;;;;0.30;0.20;;;;;;;;;;5073592;28;20464;-64
2021/06/08 02:30:40;;;;;;;0.30;0.20;;;;;;;;;;5090975;28;20444;-63
2021/06/08 02:33:06;;;;;;;0.30;0.20;;;;;;;;;;5093756;28;20432;-63
2021/06/08 02:35:32;;;;;;;0.30;0.20;;;;;;;;;;5076735;28;20571;-63
2021/06/08 02:37:59;;;;;;;0.30;0.20;;;;;;;;;;5086247;28;20791;-64
2021/06/08 02:40:26;;;;;;;0.30;0.20;;;;;;;;;;5079255;28;20422;-63
2021/06/08 02:42:52;;;;;;;0.30;0.20;;;;;;;;;;5077712;28;20420;-63
2021/06/08 02:45:19;;;;;;;0.30;0.20;;;;;;;;;;5077481;28;20392;-63
2021/06/08 02:47:45;;;;;;;0.30;0.20;;;;;;;;;;5080653;28;20460;-63
2021/06/08 02:50:12;;;;;;;0.30;0.20;;;;;;;;;;5079640;28;20428;-62
2021/06/08 02:52:38;;;;;;;0.30;0.20;;;;;;;;;;5092632;28;20933;-63
2021/06/08 02:55:05;;;;;;;0.30;0.20;;;;;;;;;;5073108;28;20466;-63
2021/06/08 02:57:33;;;;;;;0.30;0.20;;;;;;;;;;5073231;28;20478;-63
2021/06/08 03:00:03;;;;;;;0.30;0.20;;;;;;;;;;5079354;28;20447;-63
2021/06/08 03:02:32;;;;;;;0.30;0.20;;;;;;;;;;5072905;28;20410;-63
2021/06/08 03:05:01;;;;;;;0.30;0.20;;;;;;;;;;5091529;28;20403;-63
2021/06/08 03:07:27;;;;;;;0.30;0.20;;;;;;;;;;5079272;28;20484;-63
2021/06/08 03:09:58;;;;;;;0.30;0.20;;;;;;;;;;5080904;28;20415;-63
2021/06/08 03:12:27;;;;;;;0.30;0.20;;;;;;;;;;5072903;28;20384;-63
2021/06/08 03:14:54;;;;;;;0.30;0.20;;;;;;;;;;5072693;28;21023;-63
2021/06/08 03:17:23;;;;;;;0.30;0.20;;;;;;;;;;5082187;28;20494;-63
2021/06/08 03:19:50;;;;;;;0.30;0.20;;;;;;;;;;5074623;28;20392;-63
2021/06/08 03:22:19;;;;;;;0.30;0.20;;;;;;;;;;5076476;28;20431;-63
2021/06/08 03:24:47;;;;;;;0.30;0.20;;;;;;;;;;5073463;28;20429;-63
2021/06/08 03:27:13;;;;;;;0.30;0.20;;;;;;;;;;5091320;28;20907;-63
2021/06/08 03:29:40;;;;;;;0.30;0.20;;;;;;;;;;5084092;28;20421;-63
2021/06/08 03:32:06;;;;;;;0.30;0.20;;;;;;;;;;5072429;28;20417;-63
2021/06/08 03:34:33;;;;;;;0.30;0.20;;;;;;;;;;5087683;28;20849;-63
2021/06/08 03:37:01;;;;;;;0.30;0.20;;;;;;;;;;5082862;28;20421;-63
2021/06/08 03:39:27;;;;;;;0.30;0.20;;;;;;;;;;5085500;28;20418;-63
2021/06/08 03:41:53;;;;;;;0.30;0.20;;;;;;;;;;5076984;28;20460;-63
2021/06/08 03:44:20;;;;;;;0.30;0.20;;;;;;;;;;5072113;28;20441;-63
2021/06/08 03:46:47;;;;;;;0.30;0.20;;;;;;;;;;5081874;28;20909;-63
2021/06/08 03:49:14;;;;;;;0.30;0.20;;;;;;;;;;5071816;28;20470;-63
2021/06/08 03:51:40;;;;;;;0.30;0.20;;;;;;;;;;5084956;28;20419;-63
2021/06/08 03:54:06;;;;;;;0.30;0.20;;;;;;;;;;5091968;28;20424;-62
2021/06/08 03:56:33;;;;;;;0.30;0.20;;;;;;;;;;5085177;28;20448;-63
2021/06/08 03:59:00;;;;;;;0.30;0.20;;;;;;;;;;5089425;28;20456;-63
2021/06/08 04:01:27;;;;;;;0.30;0.20;;;;;;;;;;5071884;28;20777;-63
2021/06/08 04:03:54;;;;;;;0.30;0.20;;;;;;;;;;5072806;28;20422;-63
2021/06/08 04:06:20;;;;;;;0.30;0.20;;;;;;;;;;5080789;28;20417;-63
2021/06/08 04:08:46;;;;;;;0.30;0.20;;;;;;;;;;5089864;28;20462;-63
2021/06/08 04:11:13;;;;;;;0.30;0.20;;;;;;;;;;5092370;28;20895;-63
2021/06/08 04:13:40;;;;;;;0.30;0.20;;;;;;;;;;5075362;28;20444;-63
2021/06/08 04:16:07;;;;;;;0.30;0.20;;;;;;;;;;5079575;28;20391;-63
2021/06/08 04:18:33;;;;;;;0.30;0.20;;;;;;;;;;5091688;28;20814;-63
2021/06/08 04:20:59;;;;;;;0.30;0.20;;;;;;;;;;5078675;28;20482;-63
2021/06/08 04:23:26;;;;;;;0.30;0.20;;;;;;;;;;5090963;28;20844;-63
2021/06/08 04:25:52;;;;;;;0.30;0.20;;;;;;;;;;5087310;28;20433;-63
2021/06/08 04:28:19;;;;;;;0.30;0.20;;;;;;;;;;5083148;28;20838;-63
2021/06/08 04:30:46;;;;;;;0.30;0.20;;;;;;;;;;5085761;28;20428;-63
2021/06/08 04:33:12;;;;;;;0.30;0.20;;;;;;;;;;5090168;28;20427;-63
2021/06/08 04:35:39;;;;;;;0.30;0.20;;;;;;;;;;5091662;28;20444;-63
2021/06/08 04:38:05;;;;;;;0.30;0.20;;;;;;;;;;5088363;28;20420;-63
2021/06/08 04:40:31;;;;;;;0.30;0.20;;;;;;;;;;5082461;28;20819;-63
2021/06/08 04:42:57;;;;;;;0.30;0.20;;;;;;;;;;5057650;28;20463;-63
2021/06/08 04:45:23;;;;;;;0.30;0.20;;;;;;;;;;5073956;28;20455;-63
2021/06/08 04:47:49;;;;;;;0.30;0.20;;;;;;;;;;5079948;28;20506;-63
2021/06/08 04:50:16;;;;;;;0.30;0.20;;;;;;;;;;5086383;28;20456;-62
2021/06/08 04:52:42;;;;;;;0.30;0.20;;;;;;;;;;5091432;28;20480;-62
2021/06/08 04:55:09;;;;;;;0.30;0.20;;;;;;;;;;5090822;28;20405;-63
2021/06/08 04:57:36;;;;;;;0.30;0.20;;;;;;;;;;5085311;28;20464;-62
2021/06/08 05:00:12;;;;;;;0.30;0.20;;;;;;;;;;5072024;28;20944;-63
2021/06/08 05:02:41;;;;;;;0.30;0.20;;;;;;;;;;5076087;28;20816;-63
2021/06/08 05:05:26;;;;;;;0.30;0.20;;;;;;;;;;5095106;28;20433;-63
2021/06/08 05:07:57;;;;;;;0.30;0.20;;;;;;;;;;5080697;28;20948;-63
2021/06/08 05:10:40;;;;;;;0.30;0.20;;;;;;;;;;5059874;28;21626;-63
2021/06/08 05:13:09;;;;;;;0.30;0.20;;;;;;;;;;5089750;28;20440;-63
2021/06/08 05:15:35;;;;;;;0.30;0.20;;;;;;;;;;5091442;28;20399;-63
2021/06/08 05:18:02;;;;;;;0.30;0.20;;;;;;;;;;5074875;28;20859;-63
2021/06/08 05:20:28;;;;;;;0.30;0.20;;;;;;;;;;5076772;28;20480;-63
2021/06/08 05:22:55;;;;;;;0.30;0.20;;;;;;;;;;5088162;28;20451;-63
2021/06/08 05:25:22;;;;;;;0.30;0.20;;;;;;;;;;5076362;28;20482;-63
2021/06/08 05:27:48;;;;;;;0.30;0.20;;;;;;;;;;5095048;28;20429;-63
2021/06/08 05:30:14;;;;;;;0.30;0.20;;;;;;;;;;5077766;28;20397;-63
2021/06/08 05:32:43;;;;;;;0.30;0.20;;;;;;;;;;5089360;28;20479;-63
2021/06/08 05:35:10;;;;;;;0.30;0.20;;;;;;;;;;5086857;28;20440;-63
2021/06/08 05:37:42;;;;;;;0.30;0.20;;;;;;;;;;5077912;28;20418;-63
2021/06/08 05:40:08;;;;;;;0.30;0.20;;;;;;;;;;5085905;28;20409;-63
2021/06/08 05:42:35;;;;;;;0.30;0.20;;;;;;;;;;5092769;28;20453;-63
2021/06/08 05:45:01;;;;;;;0.30;0.30;;;;;;;;;;5084504;28;20429;-63
2021/06/08 05:47:27;;;;;;;0.30;0.20;;;;;;;;;;5076986;28;20504;-63
2021/06/08 05:49:53;;;;;;;0.30;0.20;;;;;;;;;;5094350;28;20423;-63
2021/06/08 05:52:20;;;;;;;0.30;0.20;;;;;;;;;;5092292;28;20499;-63
2021/06/08 05:54:46;;;;;;;0.30;0.20;;;;;;;;;;5090875;28;20486;-63
2021/06/08 05:57:12;;;;;;;0.30;0.20;;;;;;;;;;5074324;28;20405;-63
2021/06/08 05:59:39;;;;;;;0.30;0.20;;;;;;;;;;5077473;28;20889;-63
2021/06/08 06:02:05;;;;;;;0.30;0.20;;;;;;;;;;5079968;28;20516;-63
2021/06/08 06:04:31;;;;;;;0.30;0.20;;;;;;;;;;5092371;28;21008;-63
2021/06/08 06:06:59;;;;;;;0.30;0.20;;;;;;;;;;5088843;28;20175;-63
2021/06/08 06:09:25;;;;;;;0.30;0.20;;;;;;;;;;5082981;28;20990;-63
2021/06/08 06:11:53;;;;;;;0.30;0.20;;;;;;;;;;5093429;28;20412;-64
2021/06/08 06:14:23;;;;;;;0.30;0.20;;;;;;;;;;5093404;28;20443;-63
2021/06/08 06:16:52;;;;;;;0.30;0.20;;;;;;;;;;5094472;28;20382;-63
2021/06/08 06:19:18;;;;;;;0.30;0.20;;;;;;;;;;5093793;28;20413;-63
2021/06/08 06:21:45;;;;;;;0.30;0.20;;;;;;;;;;5094166;28;20410;-64
2021/06/08 06:24:12;;;;;;;0.30;0.20;;;;;;;;;;5093567;28;20472;-63
2021/06/08 06:26:40;;;;;;;0.30;0.20;;;;;;;;;;5094007;28;20425;-63
2021/06/08 06:29:08;;;;;;;0.30;0.20;;;;;;;;;;5093661;28;20482;-63
2021/06/08 06:31:34;;;;;;;0.30;0.20;;;;;;;;;;5093795;28;20408;-63
2021/06/08 06:34:00;;;;;;;0.30;0.20;;;;;;;;;;5075639;28;20925;-63
2021/06/08 06:36:27;;;;;;;0.30;0.20;;;;;;;;;;5093726;28;20488;-63
2021/06/08 06:38:53;;;;;;;0.30;0.20;;;;;;;;;;5093526;28;20424;-63
2021/06/08 06:41:19;;;;;;;0.30;0.20;;;;;;;;;;5094110;28;20411;-63
2021/06/08 06:43:50;;;;;;;0.30;0.20;;;;;;;;;;5094273;28;20436;-63
2021/06/08 06:46:16;;;;;;;0.30;0.20;;;;;;;;;;5093706;28;20411;-63
2021/06/08 06:48:44;;;;;;;0.30;0.20;;;;;;;;;;5093405;28;20463;-63
2021/06/08 06:51:11;;;;;;;0.30;0.20;;;;;;;;;;5093983;28;20444;-63
2021/06/08 06:53:37;;;;;;;0.30;0.20;;;;;;;;;;5093715;28;20423;-63
2021/06/08 06:56:03;;;;;;;0.30;0.20;;;;;;;;;;5093542;28;20494;-63
2021/06/08 06:58:29;;;;;;;0.30;0.20;;;;;;;;;;5093490;28;20487;-63
2021/06/08 07:00:57;;;;;;;0.30;0.30;;;;;;;;;;5094001;28;20413;-63
2021/06/08 07:03:42;;;;;;;0.30;0.20;;;;;;;;;;5093239;28;20458;-63
2021/06/08 07:06:09;;;;;;;0.30;0.30;;;;;;;;;;5093335;28;20780;-63
2021/06/08 07:08:35;;;;;;;0.30;0.20;;;;;;;;;;5092806;28;20918;-63
2021/06/08 07:11:01;;;;;;;0.30;0.20;;;;;;;;;;5093026;28;20470;-63
2021/06/08 07:13:27;;;;;;;0.30;0.20;;;;;;;;;;5091353;28;20827;-63
2021/06/08 07:15:54;;;;;;;0.30;0.20;;;;;;;;;;5092833;28;20416;-64
2021/06/08 07:18:20;;;;;;;0.30;0.20;;;;;;;;;;5092564;28;20772;-63
2021/06/08 07:20:47;;;;;;;0.30;0.20;;;;;;;;;;5092560;28;20753;-63
2021/06/08 07:23:16;;;;;;;0.30;0.20;;;;;;;;;;5092364;28;20463;-63
2021/06/08 07:25:42;;;;;;;0.30;0.20;;;;;;;;;;5091456;28;20776;-62
2021/06/08 07:28:09;;;;;;;0.30;0.20;;;;;;;;;;5092229;28;20455;-63
2021/06/08 07:30:36;;;;;;;0.30;0.20;;;;;;;;;;5091833;28;20380;-63
2021/06/08 07:33:13;;;;;;;0.30;0.20;;;;;;;;;;5092412;28;20395;-63
2021/06/08 07:35:54;;;;;;;0.30;0.20;;;;;;;;;;5092664;28;20439;-63
2021/06/08 07:38:21;;;;;;;0.30;0.20;;;;;;;;;;5091978;28;20440;-63
2021/06/08 07:40:54;;;;;;;0.30;0.20;;;;;;;;;;5091996;28;20408;-61
2021/06/08 07:43:21;;;;;;;0.30;0.30;;;;;;;;;;5092536;28;20470;-63
2021/06/08 07:45:49;;;;;;;0.30;0.20;;;;;;;;;;5091972;28;20408;-63
2021/06/08 07:48:17;;;;;;;0.30;0.20;;;;;;;;;;5092264;28;20981;-63
2021/06/08 07:50:49;;;;;;;0.30;0.20;;;;;;;;;;5092283;28;20380;-63
2021/06/08 07:53:15;;;;;;;0.30;0.20;;;;;;;;;;5092525;28;20797;-63
2021/06/08 07:55:43;;;;;;;0.30;0.20;;;;;;;;;;5092447;28;20404;-63
2021/06/08 07:58:09;;;;;;;0.30;0.20;;;;;;;;;;5092323;28;20491;-63
2021/06/08 08:00:35;;;;;;;0.30;0.30;;;;;;;;;;5091216;28;20412;-63
2021/06/08 08:05:47;;;;;;;0.30;0.30;;;;;;;;;;5091859;28;20415;-63
2021/06/08 08:08:18;;;;;;;0.30;0.20;;;;;;;;;;5091594;28;20489;-63
2021/06/08 08:10:44;;;;;;;0.30;0.20;;;;;;;;;;5098995;28;20414;-63
2021/06/08 08:13:10;;;;;;;0.30;0.20;;;;;;;;;;5106977;28;20429;-63
2021/06/08 08:15:36;;;;;;;0.30;0.20;;;;;;;;;;5104261;28;20411;-63
2021/06/08 08:18:04;;;;;;;0.30;0.20;;;;;;;;;;5094934;28;20379;-63
2021/06/08 08:20:40;;;;;;;0.30;0.20;;;;;;;;;;5091669;28;20419;-63
2021/06/08 08:23:06;;;;;;;0.30;0.20;;;;;;;;;;5091419;28;20437;-63
2021/06/08 08:25:32;;;;;;;0.30;0.20;;;;;;;;;;5091964;28;20409;-63
2021/06/08 08:27:58;;;;;;;0.30;0.30;;;;;;;;;;5091429;28;20882;-63
2021/06/08 08:30:24;;;;;;;0.30;0.30;;;;;;;;;;5091240;28;20408;-62
2021/06/08 08:32:50;;;;;;;0.30;0.20;;;;;;;;;;5091338;28;20793;-63
2021/06/08 08:35:16;;;;;;;0.30;0.20;;;;;;;;;;5091337;28;20461;-63
2021/06/08 08:37:42;;;;;;;0.30;0.20;;;;;;;;;;5090884;28;20825;-63
2021/06/08 08:40:10;;;;;;;0.30;0.20;;;;;;;;;;5091057;28;20401;-63
2021/06/08 08:42:36;;;;;;;0.20;0.20;;;;;;;;;;5091339;28;20523;-63
2021/06/08 08:45:02;;;;;;;0.20;0.20;;;;;;;;;;5091315;28;20964;-63
2021/06/08 08:47:28;;;;;;;0.20;0.20;;;;;;;;;;5091062;28;20371;-63
2021/06/08 08:49:54;;;;;;;0.20;0.20;;;;;;;;;;5056322;28;20409;-63
2021/06/08 08:52:21;;;;;;;0.30;0.20;;;;;;;;;;5090986;28;20403;-63
2021/06/08 08:54:48;;;;;;;0.20;0.20;;;;;;;;;;5091113;28;20405;-63
2021/06/08 08:57:17;;;;;;;0.20;0.20;;;;;;;;;;5091355;28;20387;-63
2021/06/08 08:59:43;;;;;;;0.20;0.20;;;;;;;;;;5091132;28;20379;-63
2021/06/08 09:02:09;;;;;;;0.20;0.20;;;;;;;;;;5091160;28;20390;-63
2021/06/08 09:04:35;;;;;;;0.20;0.20;;;;;;;;;;5091286;28;20452;-63
2021/06/08 09:07:01;;;;;;;0.20;0.20;;;;;;;;;;5091007;28;20382;-63
2021/06/08 09:09:29;;;;;;;0.20;0.20;;;;;;;;;;5091016;28;20460;-63
2021/06/08 09:11:55;;;;;;;0.20;0.20;;;;;;;;;;5091120;28;20405;-63
2021/06/08 09:14:22;;;;;;;0.20;0.20;;;;;;;;;;5091136;28;20594;-63
2021/06/08 09:16:48;;;;;;;0.20;0.20;;;;;;;;;;5091032;28;20922;-63
2021/06/08 09:19:14;;;;;;;0.20;0.20;;;;;;;;;;5090681;28;20876;-63
2021/06/08 09:21:44;;;;;;;0.20;0.20;;;;;;;;;;5090831;28;20783;-63
2021/06/08 09:24:20;;;;;;;0.20;0.20;;;;;;;;;;5090973;28;20444;-63
2021/06/08 09:26:49;;;;;;;0.20;0.20;;;;;;;;;;5091054;28;20382;-63
2021/06/08 09:29:27;;;;;;;0.20;0.20;;;;;;;;;;5090527;28;20801;-63
2021/06/08 09:32:12;;;;;;;0.20;0.20;;;;;;;;;;5090877;28;20407;-63
2021/06/08 09:34:40;;;;;;;0.20;0.20;;;;;;;;;;5090815;28;20479;-63
2021/06/08 09:37:06;;;;;;;0.20;0.20;;;;;;;;;;5090104;28;20844;-63
2021/06/08 09:39:32;;;;;;;0.30;0.30;;;;;;;;;;5090763;28;20397;-63
2021/06/08 09:41:58;;;;;;;0.20;0.20;;;;;;;;;;5091008;28;20400;-63
2021/06/08 09:44:25;;;;;;;0.20;0.20;;;;;;;;;;5090935;28;20423;-63
2021/06/08 09:46:55;;;;;;;0.20;0.20;;;;;;;;;;5090941;28;20416;-63
2021/06/08 09:49:30;;;;;;;0.20;0.20;;;;;;;;;;5092630;28;20463;-63
2021/06/08 09:52:00;;;;;;;0.20;0.20;;;;;;;;;;5094531;28;20440;-63
2021/06/08 09:54:32;;;;;;;0.20;0.20;;;;;;;;;;5086782;28;20483;-63
2021/06/08 09:57:12;;;;;;;0.20;0.20;;;;;;;;;;5074156;28;20381;-63
2021/06/08 09:59:47;;;;;;;0.20;0.20;;;;;;;;;;5089842;28;20783;-63
2021/06/08 10:02:35;;;;;;;0.20;0.20;;;;;;;;;;5094265;28;20410;-63
2021/06/08 10:05:20;;;;;;;0.20;0.20;;;;;;;;;;5094618;28;20897;-63
2021/06/08 10:07:47;;;;;;;0.20;0.20;;;;;;;;;;5094230;28;20592;-63
2021/06/08 10:10:15;;;;;;;0.20;0.20;;;;;;;;;;5094256;28;20404;-64
2021/06/08 10:12:53;;;;;;;0.20;0.20;;;;;;;;;;5076095;28;20436;-64
2021/06/08 10:15:19;;;;;;;0.20;0.20;;;;;;;;;;5094309;28;20451;-63
2021/06/08 10:17:45;;;;;;;0.20;0.20;;;;;;;;;;5093951;28;20492;-63
2021/06/08 10:20:22;;;;;;;0.20;0.20;;;;;;;;;;5093769;28;20415;-63
2021/06/08 10:22:48;;;;;;;0.20;0.20;;;;;;;;;;5093936;28;20807;-62
2021/06/08 10:25:14;;;;;;;0.20;0.20;;;;;;;;;;5075695;28;20458;-63
2021/06/08 10:27:41;;;;;;;0.20;0.20;;;;;;;;;;5093952;28;20413;-63
2021/06/08 10:30:08;;;;;;;0.20;0.20;;;;;;;;;;5093646;28;20390;-62
2021/06/08 10:32:37;;;;;;;0.20;0.20;;;;;;;;;;5093606;28;20420;-61
2021/06/08 10:35:04;;;;;;;0.20;0.20;;;;;;;;;;5093842;28;20407;-64
2021/06/08 10:37:31;;;;;;;0.20;0.20;;;;;;;;;;5093782;28;20407;-62
2021/06/08 10:39:59;;;;;;;0.20;0.20;;;;;;;;;;5093416;28;20412;-63
2021/06/08 10:42:26;;;;;;;0.20;0.20;;;;;;;;;;5093556;28;20379;-62
2021/06/08 10:45:00;;;;;;;0.20;0.20;;;;;;;;;;5093628;28;20401;-60
2021/06/08 10:50:00;;;;;;;0.20;0.20;;;;;;;;;;5093483;28;20412;-62
2021/06/08 10:52:27;;;;;;;0.20;0.20;;;;;;;;;;5093392;28;20469;-62
2021/06/08 10:54:54;;;;;;;0.20;0.20;;;;;;;;;;5093429;28;20399;-62
2021/06/08 10:57:21;;;;;;;0.20;0.20;;;;;;;;;;5093312;28;20393;-62
2021/06/08 10:59:47;;;;;;;0.20;0.20;;;;;;;;;;5092803;28;20388;-64
2021/06/08 11:02:13;;;;;;;0.20;0.20;;;;;;;;;;5093157;28;20427;-62
2021/06/08 11:04:56;;;;;;;0.20;0.20;;;;;;;;;;5093175;28;20421;-62
2021/06/08 11:07:41;;;;;;;0.20;0.20;;;;;;;;;;5093145;28;20397;-62
2021/06/08 11:10:25;;;;;;;0.20;0.20;;;;;;;;;;5092698;28;20511;-62
2021/06/08 11:13:13;;;;;;;0.20;0.20;;;;;;;;;;5074797;28;20411;-62
2021/06/08 11:15:41;;;;;;;0.20;0.20;;;;;;;;;;5093013;28;20408;-62
2021/06/08 11:18:22;;;;;;;0.20;0.20;;;;;;;;;;5092900;28;20405;-62
2021/06/08 11:20:50;;;;;;;0.20;0.20;;;;;;;;;;5090925;28;20415;-63
2021/06/08 11:23:34;;;;;;;0.20;0.20;;;;;;;;;;5117035;22;20490;-62
2021/06/08 11:26:00;;;;;;;0.20;0.20;;;;;;;;;;5112730;28;20498;-62
2021/06/08 11:28:45;;;;;;;0.20;0.20;;;;;;;;;;5112381;28;20496;-62
2021/06/08 11:31:12;;;;;;;0.20;0.20;;;;;;;;;;5112660;28;20468;-62
2021/06/08 11:33:42;;;;;;;0.20;0.20;;;;;;;;;;5112609;28;20426;-62
2021/06/08 11:36:17;;;;;;;0.20;0.20;;;;;;;;;;5112842;28;20770;-63
2021/06/08 11:38:43;;;;;;;0.20;0.20;;;;;;;;;;5112376;28;20497;-62
2021/06/08 11:41:11;;;;;;;0.20;0.20;;;;;;;;;;5093795;28;20451;-62
2021/06/08 11:43:42;;;;;;;0.20;0.20;;;;;;;;;;5111146;28;20941;-62
2021/06/08 11:46:15;;;;;;;0.20;0.20;;;;;;;;;;5111143;28;20386;-63
2021/06/08 11:48:49;;;;;;;0.20;0.20;;;;;;;;;;5111978;28;20455;-62
2021/06/08 11:51:15;;;;;;;0.20;0.20;;;;;;;;;;5112228;28;20415;-62
2021/06/08 11:53:57;;;;;;;0.20;0.20;;;;;;;;;;5112273;28;20511;-63
2021/06/08 11:56:40;;;;;;;0.20;0.20;;;;;;;;;;5112219;28;20432;-64
2021/06/08 11:59:07;;;;;;;0.20;0.20;;;;;;;;;;5112335;28;20413;-64
2021/06/08 12:01:38;;;;;;;0.20;0.20;;;;;;;;;;5112464;28;20374;-64
2021/06/08 12:04:04;;;;;;;0.20;0.20;;;;;;;;;;5112165;28;20447;-65
2021/06/08 12:06:48;;;;;;;0.20;0.20;;;;;;;;;;5112044;28;20868;-64
2021/06/08 12:09:17;;;;;;;0.20;0.20;;;;;;;;;;5111850;28;20498;-64
2021/06/08 12:11:43;;;;;;;0.20;0.20;;;;;;;;;;5111785;28;20838;-61
2021/06/08 12:14:09;;;;;;;0.20;0.20;;;;;;;;;;5111868;28;20426;-62
2021/06/08 12:16:35;;;;;;;0.20;0.20;;;;;;;;;;5111953;28;20927;-62
2021/06/08 12:19:06;;;;;;;0.20;0.20;;;;;;;;;;5111665;28;20439;-62
2021/06/08 12:21:32;;;;;;;0.20;0.20;;;;;;;;;;5112040;28;20414;-62
2021/06/08 12:23:59;;;;;;;0.20;0.20;;;;;;;;;;5111696;28;21012;-63
2021/06/08 12:26:25;;;;;;;0.20;0.20;;;;;;;;;;5111819;28;20496;-62
2021/06/08 12:29:09;;;;;;;0.20;0.20;;;;;;;;;;5111555;28;20920;-62
2021/06/08 12:31:36;;;;;;;0.20;0.20;;;;;;;;;;5111642;28;20800;-64
2021/06/08 12:34:09;;;;;;;0.20;0.20;;;;;;;;;;5111715;28;20465;-63
2021/06/08 12:36:39;;;;;;;0.20;0.20;;;;;;;;;;5111623;28;20403;-63
2021/06/08 12:39:10;;;;;;;0.20;0.20;;;;;;;;;;5111354;28;20381;-63
2021/06/08 12:41:36;;;;;;;0.20;0.20;;;;;;;;;;5111549;28;20482;-63
2021/06/08 12:44:02;;;;;;;0.20;0.20;;;;;;;;;;5111430;28;20439;-63
2021/06/08 12:46:31;;;;;;;0.20;0.20;;;;;;;;;;5111109;28;20672;-63
2021/06/08 12:49:03;;;;;;;0.20;0.20;;;;;;;;;;5111087;28;20501;-63
2021/06/08 12:51:36;;;;;;;0.20;0.20;;;;;;;;;;5111493;28;20412;-63
2021/06/08 12:54:05;;;;;;;0.20;0.20;;;;;;;;;;5111390;28;20474;-63
2021/06/08 12:56:32;;;;;;;0.20;0.20;;;;;;;;;;5111323;28;20911;-63
2021/06/08 12:58:58;;;;;;;0.20;0.20;;;;;;;;;;5111200;28;20404;-63
2021/06/08 13:01:25;;;;;;;0.20;0.20;;;;;;;;;;5111391;28;20453;-63
2021/06/08 13:03:51;;;;;;;0.20;0.20;;;;;;;;;;5111640;28;20747;-63
2021/06/08 13:06:21;;;;;;;0.20;0.20;;;;;;;;;;5111411;28;20778;-63
2021/06/08 13:08:48;;;;;;;0.20;0.20;;;;;;;;;;5111044;28;20876;-63
2021/06/08 13:11:21;;;;;;;0.20;0.20;;;;;;;;;;5111301;28;20595;-63
2021/06/08 13:13:47;;;;;;;0.20;0.20;;;;;;;;;;5111350;28;20417;-63
2021/06/08 13:16:33;;;;;;;0.20;0.20;;;;;;;;;;5111236;28;20379;-63
2021/06/08 13:19:17;;;;;;;0.20;0.20;;;;;;;;;;5110801;28;20400;-63
2021/06/08 13:21:44;;;;;;;0.20;0.20;;;;;;;;;;5111395;28;20417;-64
2021/06/08 13:24:11;;;;;;;0.20;0.20;;;;;;;;;;5114360;28;20437;-63
2021/06/08 13:26:37;;;;;;;0.20;0.20;;;;;;;;;;5115198;28;20481;-63
2021/06/08 13:29:12;;;;;;;0.20;0.20;;;;;;;;;;5114935;28;20463;-63
2021/06/08 13:31:39;;;;;;;0.20;0.20;;;;;;;;;;5115027;28;20455;-63
2021/06/08 13:34:15;;;;;;;0.20;0.20;;;;;;;;;;5114842;28;20396;-62
2021/06/08 13:36:43;;;;;;;0.20;0.20;;;;;;;;;;5115296;28;20396;-63
2021/06/08 13:39:09;;;;;;;0.20;0.20;;;;;;;;;;5114681;28;20374;-63
2021/06/08 13:41:35;;;;;;;0.20;0.20;;;;;;;;;;5115066;28;20418;-63
2021/06/08 13:44:06;;;;;;;0.20;0.20;;;;;;;;;;5115188;28;20424;-63
2021/06/08 13:46:32;;;;;;;0.20;0.20;;;;;;;;;;5115429;28;20408;-63
2021/06/08 13:48:59;;;;;;;0.20;0.20;;;;;;;;;;5114740;28;20454;-63
2021/06/08 13:51:26;;;;;;;0.20;0.20;;;;;;;;;;5114540;28;20453;-63
2021/06/08 13:54:07;;;;;;;0.20;0.20;;;;;;;;;;5114478;28;20416;-63
2021/06/08 13:57:00;;;;;;;0.20;0.20;;;;;;;;;;5114511;28;20401;-63
2021/06/08 14:02:39;;;;;;;0.20;0.20;;;;;;;;;;5135251;27;20408;-62
2021/06/08 14:05:05;;;;;;;0.20;0.20;;;;;;;;;;5134991;27;20419;-63
2021/06/08 14:07:31;;;;;;;0.20;0.20;;;;;;;;;;5134994;27;20410;-63
2021/06/08 14:09:57;;;;;;;0.20;0.20;;;;;;;;;;5134532;27;20452;-64
2021/06/08 14:12:24;;;;;;;0.20;0.20;;;;;;;;;;5135001;27;20387;-64
2021/06/08 14:14:51;;;;;;;0.20;0.20;;;;;;;;;;5134815;27;20395;-64
2021/06/08 14:17:20;;;;;;;0.20;0.20;;;;;;;;;;5134801;27;20375;-64
2021/06/08 14:19:51;;;;;;;0.20;0.20;;;;;;;;;;5134889;27;20408;-64
2021/06/08 14:22:17;;;;;;;0.20;0.20;;;;;;;;;;5134906;27;20378;-63
2021/06/08 14:24:43;;;;;;;0.20;0.20;;;;;;;;;;5134356;27;20488;-64
2021/06/08 14:27:14;;;;;;;0.20;0.20;;;;;;;;;;5134998;27;20506;-64
2021/06/08 14:29:41;;;;;;;0.20;0.20;;;;;;;;;;5134243;27;20482;-64
2021/06/08 14:32:08;;;;;;;0.20;0.20;;;;;;;;;;5134735;27;20409;-64
2021/06/08 14:34:34;;;;;;;0.20;0.20;;;;;;;;;;5132405;27;20427;-64
2021/06/08 14:37:00;;;;;;;0.20;0.20;;;;;;;;;;5113615;27;20422;-64
2021/06/08 14:39:27;;;;;;;0.20;0.20;;;;;;;;;;5113636;28;20814;-64
2021/06/08 14:41:53;;;;;;;0.20;0.20;;;;;;;;;;5095554;28;20414;-62
2021/06/08 14:44:19;;;;;;;0.20;0.20;;;;;;;;;;5113602;28;20430;-62
2021/06/08 14:46:46;;;;;;;0.20;0.20;;;;;;;;;;5113632;28;20420;-64
2021/06/08 14:49:13;;;;;;;0.20;0.20;;;;;;;;;;5113908;28;20502;-63
2021/06/08 14:51:39;;;;;;;0.20;0.20;;;;;;;;;;5113547;28;20440;-63
2021/06/08 14:54:05;;;;;;;0.20;0.20;;;;;;;;;;5113206;28;20471;-64
2021/06/08 14:56:32;;;;;;;0.20;0.20;;;;;;;;;;5113100;28;20379;-63
2021/06/08 14:58:58;;;;;;;0.20;0.20;;;;;;;;;;5113074;28;20414;-64